Maria Desgagnes — VCWL — position and weather

sailwx.info

Track history (hours):
 
Tides and Currents Weather Stations Pressure Air Temp Water Temp Dewpoint Dewpoint Depression Visibility Wind Speed Wind Dir Waves Ship Positions

Maria Desgagnes

Last reported at 2018-Apr-20 18:00 UTC. Time now 2018-Apr-21 00:21 UTC.
Position N 45°36' W 073°30'.

Length 120 m; draft 7.2 m.

Type: Ship. MMSI: 316285000.

Wind from 300 at 11 knots

Barometer 1019.9 mb
Air temperature 7.1 ° C
Dewpoint 8.5 ° C

Date/timePositionNaut miles runAvg speedWind from/ knotsBaromVisibWave heightAir tempDewpointWater temp
2018-Apr-20 18:00N 45°36' W 073°30'0 0.0 300 / 111019.9 7.1 8.5
2018-Apr-20 12:00N 45°36' W 073°30'0 0.0 280 / 91017.2 2.2 3.4
2018-Apr-20 06:00N 45°36' W 073°30'0 0.0 310 / 111012.6 2.5 3.7
2018-Apr-20 03:00N 45°36' W 073°30'0 0.0 280 / 111011.8 2.4 3.7
2018-Apr-20 00:00N 45°36' W 073°30'0 0.0 300 / 121009.9 3.9 5.2 3.2
2018-Apr-19 21:00N 45°36' W 073°30'0 0.0 290 / 121007.8 4.5 5.7
2018-Apr-19 18:00N 45°36' W 073°30'0 0.0 280 / 71006.2 4.6 5.9
2018-Apr-19 15:00N 45°36' W 073°30'0 0.0 360 / 31005.8 4.1 5.4
2018-Apr-19 12:00N 45°36' W 073°30'0 0.0 260 / 101005.6 1.6 2.8
2018-Apr-19 09:00N 45°36' W 073°30'0 0.0 250 / 81003.7 1.2 2.4
2018-Apr-19 06:00N 45°36' W 073°30'0 0.0 250 / 111003.9 2.8 4.0
2018-Apr-19 03:00N 45°36' W 073°30'0 0.0 260 / 171003.2 4.6 5.8
2018-Apr-19 00:00N 45°36' W 073°30'0 0.0 270 / 161002.2 5.5 6.8
2018-Apr-18 21:00N 45°36' W 073°30'5 3.3 260 / 201000.9 7.0 8.3 3.1
2018-Apr-18 19:29N 45°31' W 073°31'1 3.0
2018-Apr-18 19:00N 45°30' W 073°30'1 5.4 240 / 15 5.3 6.6 3.8
2018-Apr-18 18:50N 45°30' W 073°31'0 1.1
2018-Apr-18 18:30N 45°29' W 073°31'1 1.9
2018-Apr-18 18:00N 45°30' W 073°30'2369.6 250 / 19 4.5 5.8 3.3
2018-Apr-18 17:59N 45°28' W 073°30'2 4.8
2018-Apr-18 17:29N 45°26' W 073°30'3 5.9
2018-Apr-18 17:00N 45°24' W 073°34'2200.2
2018-Apr-18 17:00N 45°24' W 073°36'1 2.9 240 / 15 7.2 8.5 3.0
2018-Apr-18 16:31N 45°24' W 073°34'1 2.7
2018-Apr-18 16:00N 45°24' W 073°36'122.5 250 / 15 4.9 6.2 3.0
2018-Apr-18 15:56N 45°24' W 073°38'3 5.8
2018-Apr-18 15:30N 45°25' W 073°41'4 8.6
2018-Apr-18 15:00N 45°24' W 073°47'712.8
2018-Apr-18 14:28N 45°20' W 073°55'2 3.7
2018-Apr-18 14:00N 45°18' W 073°54'0 0.0 250 / 13 1.4 2.6 2.8
2018-Apr-18 13:00N 45°18' W 073°54'1010.4 250 / 13 0.8 2.0 2.6
2018-Apr-18 12:00N 45°12' W 074°06'4 4.2 240 / 20 1.0 2.2 2.6
2018-Apr-18 11:00N 45°12' W 074°12'0 0.0 250 / 22 0.3 1.5
2018-Apr-18 10:00N 45°12' W 074°12'0 0.0 240 / 24 0.1 1.2
2018-Apr-18 09:00N 45°12' W 074°12'0 0.0 240 / 25 -0.1 1.1
2018-Apr-18 08:00N 45°12' W 074°12'0 0.0 240 / 25 -0.1 1.1
2018-Apr-18 07:00N 45°12' W 074°12'0 0.0 240 / 24 -0.0 1.2
2018-Apr-18 06:00N 45°12' W 074°12'0 0.0 240 / 26 0.3 1.5
2018-Apr-18 05:00N 45°12' W 074°12'0 0.0 240 / 24 0.5 1.7
2018-Apr-18 04:00N 45°12' W 074°12'0 0.0 240 / 24 0.4 1.6
2018-Apr-18 03:00N 45°12' W 074°12'0 0.0 240 / 27 0.2 1.3
2018-Apr-18 02:00N 45°12' W 074°12'0 0.0 250 / 25 0.1 1.2
2018-Apr-18 01:00N 45°12' W 074°12'0 0.0 240 / 24 0.1 1.3 2.8
2018-Apr-18 00:00N 45°12' W 074°12'0 0.0 250 / 23 0.1 1.3 2.9
2018-Apr-17 23:00N 45°12' W 074°12'4 4.2 240 / 24 0.4 1.6 2.9
2018-Apr-17 22:00N 45°12' W 074°18'1010.4 230 / 22 0.8 2.0 2.9
2018-Apr-17 21:00N 45°06' W 074°30'1514.7 240 / 20 0.7 1.9 2.8
2018-Apr-17 20:00N 44°54' W 074°42'4 4.3 230 / 14 1.2 2.4 2.5
2018-Apr-17 19:00N 44°54' W 074°48'4 4.3 230 / 10 2.0 3.3 2.8
2018-Apr-17 18:00N 44°54' W 074°54'9 8.5 230 / 13 2.4 3.6 2.8
2018-Apr-17 17:00N 44°54' W 075°06'1010.4 230 / 15 1.5 2.8 2.7
2018-Apr-17 16:00N 44°48' W 075°18'4 4.3 230 / 10 1.3 2.6 2.7
2018-Apr-17 15:00N 44°48' W 075°24'1514.7 240 / 17 1.2 2.4 2.7
2018-Apr-17 14:00N 44°36' W 075°36'1010.4 240 / 14 1.0 2.3 2.7
2018-Apr-17 13:00N 44°30' W 075°48'1312.7 240 / 18 0.6 1.8 2.6
2018-Apr-17 12:00N 44°18' W 075°54'3511.8 240 / 12992.1 0.8 2.0 2.5
2018-Apr-17 09:00N 43°54' W 076°30'3310.9 250 / 241000.8 1.0 2.2 3.0
2018-Apr-17 06:00N 43°42' W 077°12'3110.3 260 / 241001.6 1.7 2.9 2.8
2018-Apr-17 03:00N 43°36' W 077°54'3712.3 240 / 211002.0 2.7 3.9 3.2
2018-Apr-17 00:00N 43°24' W 078°42'28 5.7 240 / 161002.0 1.2 2.4 3.1
2018-Apr-16 19:00N 43°06' W 079°12'0 0.0 240 / 6 2.8 4.1 3.9
2018-Apr-16 18:00N 43°06' W 079°12'0 0.0 230 / 10 2.6 3.8 3.7
2018-Apr-16 17:00N 43°06' W 079°12'6 6.0 230 / 9 2.2 3.5 4.5
2018-Apr-16 16:00N 43°00' W 079°12'6 6.0 230 / 11 2.5 3.7 3.4
2018-Apr-16 15:00N 42°54' W 079°12'3611.9 240 / 151000.7 2.1 3.3 3.4
2018-Apr-16 12:00N 42°30' W 079°48'4213.9 220 / 191001.1 2.7 4.0 1.5
2018-Apr-16 09:00N 42°18' W 080°42'4414.6 230 / 161001.2 3.1 4.3 3.0
2018-Apr-16 06:00N 42°00' W 081°36'4214.0 250 / 181002.7 3.4 4.7 3.2
2018-Apr-16 03:00N 41°48' W 082°30'4010.0 300 / 31004.7 3.7 4.9 4.5
2018-Apr-15 23:00N 42°18' W 083°06'0 0.0 050 / 4 4.2 5.5
2018-Apr-15 22:00N 42°18' W 083°06'0 0.0 060 / 9 4.4 5.6
2018-Apr-15 21:00N 42°18' W 083°06'0 0.0 060 / 9 4.4 5.6
2018-Apr-15 20:00N 42°18' W 083°06'0 0.0 020 / 8 3.6 4.9
2018-Apr-15 19:00N 42°18' W 083°06'1110.7 070 / 13 3.0 4.2 4.8
2018-Apr-15 18:00N 42°24' W 082°54'30 9.9 070 / 231006.6 2.1 3.3 4.1
2018-Apr-15 15:00N 42°48' W 082°30'7 2.5 360 / 91011.5 0.1 1.3 3.2
2018-Apr-15 12:00N 42°54' W 082°24'0 0.0 070 / 41016.2 -0.5 0.7
2018-Apr-15 06:00N 42°54' W 082°24'0 0.0 060 / 151020.9 -1.6-0.5
2018-Apr-15 00:00N 42°54' W 082°24'0 0.0 050 / 191018.6 -0.8 0.4
2018-Apr-14 18:00N 42°54' W 082°24'0 0.0 040 / 151017.1 1.2 2.4
2018-Apr-14 12:00N 42°54' W 082°24'0 0.0 030 / 221016.1 2.3 3.5
2018-Apr-14 06:00N 42°54' W 082°24'0 0.0 030 / 161015.6 3.4 4.6
2018-Apr-14 00:00N 42°54' W 082°24'0 0.0 020 / 111013.5 4.1 5.4
2018-Apr-13 18:00N 42°54' W 082°24'0 0.0 030 / 71010.6 6.1 7.4
2018-Apr-13 15:00N 42°54' W 082°24'0 0.0 030 / 91012.7 3.6 4.8
2018-Apr-13 12:00N 42°54' W 082°24'0 0.0 030 / 101013.1 1.8 3.0
2018-Apr-13 09:00N 42°54' W 082°24'0 0.0 030 / 131012.6 1.5 2.7
2018-Apr-13 06:00N 42°54' W 082°24'0 0.0 030 / 101011.9 1.2 2.4
2018-Apr-13 03:00N 42°54' W 082°24'0 0.0 020 / 151010.7 2.8 4.1
2018-Apr-13 00:00N 42°54' W 082°24'0 0.0 040 / 201006.8 6.4 7.7
2018-Apr-12 21:00N 42°54' W 082°24'0 0.0 260 / 201000.7 21.523.2
2018-Apr-12 18:00N 42°54' W 082°24'0 0.0 220 / 131000.9 15.617.1
2018-Apr-12 15:00N 42°54' W 082°24'0 0.0 180 / 181004.6 12.914.3
2018-Apr-12 12:00N 42°54' W 082°24'0 0.0 170 / 101009.0 5.9 7.2
2018-Apr-12 09:00N 42°54' W 082°24'0 0.0 110 / 91012.9 4.0 5.3
2018-Apr-12 06:00N 42°54' W 082°24'0 0.0 130 / 101015.4 4.8 6.0
2018-Apr-12 03:00N 42°54' W 082°24'0 0.0 080 / 51016.4 4.2 5.5
2018-Apr-12 00:00N 42°54' W 082°24'0 0.0 040 / 121015.1 6.2 7.5
2018-Apr-11 21:00N 42°54' W 082°24'0 0.0 210 / 51014.0 10.211.5
2018-Apr-11 18:00N 42°54' W 082°24'0 0.0 220 / 131014.9 6.4 7.8
2018-Apr-11 15:00N 42°54' W 082°24'0 0.0 200 / 131017.3 2.4 3.6
2018-Apr-11 12:00N 42°54' W 082°24'0 0.0 200 / 91017.8 3.2 4.5
2018-Apr-11 09:00N 42°54' W 082°24'0 0.0 200 / 71018.7 2.8 4.0
2018-Apr-11 06:00N 42°54' W 082°24'0 0.0 230 / 51020.8 2.0 3.2
2018-Apr-11 00:00N 42°54' W 082°24'13 2.6 190 / 91020.9 6.5 7.8
2018-Apr-10 19:00N 42°42' W 082°30'6 6.0 190 / 9 4.8 6.1 2.5
2018-Apr-10 18:00N 42°36' W 082°30'   210 / 91024.0 3.5 4.8 2.6
Track history (hours):
 
Tides and Currents Weather Stations Pressure Air Temp Water Temp Dewpoint Dewpoint Depression Visibility Wind Speed Wind Dir Waves Ship Positions

Maria Desgagnes

Last reported at 2018-Apr-20 18:00 UTC. Time now 2018-Apr-21 00:21 UTC.
Position N 45°36' W 073°30'.

Length 120 m; draft 7.2 m.

Type: Ship. MMSI: 316285000.

Wind from 300 at 11 knots

Barometer 1019.9 mb
Air temperature 7.1 ° C
Dewpoint 8.5 ° C

Date/timePositionNaut miles runAvg speedWind from/ knotsBaromVisibWave heightAir tempDewpointWater temp
2018-Apr-20 18:00N 45°36' W 073°30'0 0.0 300 / 111019.9 7.1 8.5
2018-Apr-20 12:00N 45°36' W 073°30'0 0.0 280 / 91017.2 2.2 3.4
2018-Apr-20 06:00N 45°36' W 073°30'0 0.0 310 / 111012.6 2.5 3.7
2018-Apr-20 03:00N 45°36' W 073°30'0 0.0 280 / 111011.8 2.4 3.7
2018-Apr-20 00:00N 45°36' W 073°30'0 0.0 300 / 121009.9 3.9 5.2 3.2
2018-Apr-19 21:00N 45°36' W 073°30'0 0.0 290 / 121007.8 4.5 5.7
2018-Apr-19 18:00N 45°36' W 073°30'0 0.0 280 / 71006.2 4.6 5.9
2018-Apr-19 15:00N 45°36' W 073°30'0 0.0 360 / 31005.8 4.1 5.4
2018-Apr-19 12:00N 45°36' W 073°30'0 0.0 260 / 101005.6 1.6 2.8
2018-Apr-19 09:00N 45°36' W 073°30'0 0.0 250 / 81003.7 1.2 2.4
2018-Apr-19 06:00N 45°36' W 073°30'0 0.0 250 / 111003.9 2.8 4.0
2018-Apr-19 03:00N 45°36' W 073°30'0 0.0 260 / 171003.2 4.6 5.8
2018-Apr-19 00:00N 45°36' W 073°30'0 0.0 270 / 161002.2 5.5 6.8
2018-Apr-18 21:00N 45°36' W 073°30'5 3.3 260 / 201000.9 7.0 8.3 3.1
2018-Apr-18 19:29N 45°31' W 073°31'1 3.0
2018-Apr-18 19:00N 45°30' W 073°30'1 5.4 240 / 15 5.3 6.6 3.8
2018-Apr-18 18:50N 45°30' W 073°31'0 1.1
2018-Apr-18 18:30N 45°29' W 073°31'1 1.9
2018-Apr-18 18:00N 45°30' W 073°30'2369.6 250 / 19 4.5 5.8 3.3
2018-Apr-18 17:59N 45°28' W 073°30'2 4.8
2018-Apr-18 17:29N 45°26' W 073°30'3 5.9
2018-Apr-18 17:00N 45°24' W 073°34'2200.2
2018-Apr-18 17:00N 45°24' W 073°36'1 2.9 240 / 15 7.2 8.5 3.0
2018-Apr-18 16:31N 45°24' W 073°34'1 2.7
2018-Apr-18 16:00N 45°24' W 073°36'122.5 250 / 15 4.9 6.2 3.0
2018-Apr-18 15:56N 45°24' W 073°38'3 5.8
2018-Apr-18 15:30N 45°25' W 073°41'4 8.6
2018-Apr-18 15:00N 45°24' W 073°47'712.8
2018-Apr-18 14:28N 45°20' W 073°55'2 3.7
2018-Apr-18 14:00N 45°18' W 073°54'0 0.0 250 / 13 1.4 2.6 2.8
2018-Apr-18 13:00N 45°18' W 073°54'1010.4 250 / 13 0.8 2.0 2.6
2018-Apr-18 12:00N 45°12' W 074°06'4 4.2 240 / 20 1.0 2.2 2.6
2018-Apr-18 11:00N 45°12' W 074°12'0 0.0 250 / 22 0.3 1.5
2018-Apr-18 10:00N 45°12' W 074°12'0 0.0 240 / 24 0.1 1.2
2018-Apr-18 09:00N 45°12' W 074°12'0 0.0 240 / 25 -0.1 1.1
2018-Apr-18 08:00N 45°12' W 074°12'0 0.0 240 / 25 -0.1 1.1
2018-Apr-18 07:00N 45°12' W 074°12'0 0.0 240 / 24 -0.0 1.2
2018-Apr-18 06:00N 45°12' W 074°12'0 0.0 240 / 26 0.3 1.5
2018-Apr-18 05:00N 45°12' W 074°12'0 0.0 240 / 24 0.5 1.7
2018-Apr-18 04:00N 45°12' W 074°12'0 0.0 240 / 24 0.4 1.6
2018-Apr-18 03:00N 45°12' W 074°12'0 0.0 240 / 27 0.2 1.3
2018-Apr-18 02:00N 45°12' W 074°12'0 0.0 250 / 25 0.1 1.2
2018-Apr-18 01:00N 45°12' W 074°12'0 0.0 240 / 24 0.1 1.3 2.8
2018-Apr-18 00:00N 45°12' W 074°12'0 0.0 250 / 23 0.1 1.3 2.9
2018-Apr-17 23:00N 45°12' W 074°12'4 4.2 240 / 24 0.4 1.6 2.9
2018-Apr-17 22:00N 45°12' W 074°18'1010.4 230 / 22 0.8 2.0 2.9
2018-Apr-17 21:00N 45°06' W 074°30'1514.7 240 / 20 0.7 1.9 2.8
2018-Apr-17 20:00N 44°54' W 074°42'4 4.3 230 / 14 1.2 2.4 2.5
2018-Apr-17 19:00N 44°54' W 074°48'4 4.3 230 / 10 2.0 3.3 2.8
2018-Apr-17 18:00N 44°54' W 074°54'9 8.5 230 / 13 2.4 3.6 2.8
2018-Apr-17 17:00N 44°54' W 075°06'1010.4 230 / 15 1.5 2.8 2.7
2018-Apr-17 16:00N 44°48' W 075°18'4 4.3 230 / 10 1.3 2.6 2.7
2018-Apr-17 15:00N 44°48' W 075°24'1514.7 240 / 17 1.2 2.4 2.7
2018-Apr-17 14:00N 44°36' W 075°36'1010.4 240 / 14 1.0 2.3 2.7
2018-Apr-17 13:00N 44°30' W 075°48'1312.7 240 / 18 0.6 1.8 2.6
2018-Apr-17 12:00N 44°18' W 075°54'3511.8 240 / 12992.1 0.8 2.0 2.5
2018-Apr-17 09:00N 43°54' W 076°30'3310.9 250 / 241000.8 1.0 2.2 3.0
2018-Apr-17 06:00N 43°42' W 077°12'3110.3 260 / 241001.6 1.7 2.9 2.8
2018-Apr-17 03:00N 43°36' W 077°54'3712.3 240 / 211002.0 2.7 3.9 3.2
2018-Apr-17 00:00N 43°24' W 078°42'28 5.7 240 / 161002.0 1.2 2.4 3.1
2018-Apr-16 19:00N 43°06' W 079°12'0 0.0 240 / 6 2.8 4.1 3.9
2018-Apr-16 18:00N 43°06' W 079°12'0 0.0 230 / 10 2.6 3.8 3.7
2018-Apr-16 17:00N 43°06' W 079°12'6 6.0 230 / 9 2.2 3.5 4.5
2018-Apr-16 16:00N 43°00' W 079°12'6 6.0 230 / 11 2.5 3.7 3.4
2018-Apr-16 15:00N 42°54' W 079°12'3611.9 240 / 151000.7 2.1 3.3 3.4
2018-Apr-16 12:00N 42°30' W 079°48'4213.9 220 / 191001.1 2.7 4.0 1.5
2018-Apr-16 09:00N 42°18' W 080°42'4414.6 230 / 161001.2 3.1 4.3 3.0
2018-Apr-16 06:00N 42°00' W 081°36'4214.0 250 / 181002.7 3.4 4.7 3.2
2018-Apr-16 03:00N 41°48' W 082°30'4010.0 300 / 31004.7 3.7 4.9 4.5
2018-Apr-15 23:00N 42°18' W 083°06'0 0.0 050 / 4 4.2 5.5
2018-Apr-15 22:00N 42°18' W 083°06'0 0.0 060 / 9 4.4 5.6
2018-Apr-15 21:00N 42°18' W 083°06'0 0.0 060 / 9 4.4 5.6
2018-Apr-15 20:00N 42°18' W 083°06'0 0.0 020 / 8 3.6 4.9
2018-Apr-15 19:00N 42°18' W 083°06'1110.7 070 / 13 3.0 4.2 4.8
2018-Apr-15 18:00N 42°24' W 082°54'30 9.9 070 / 231006.6 2.1 3.3 4.1
2018-Apr-15 15:00N 42°48' W 082°30'7 2.5 360 / 91011.5 0.1 1.3 3.2
2018-Apr-15 12:00N 42°54' W 082°24'0 0.0 070 / 41016.2 -0.5 0.7
2018-Apr-15 06:00N 42°54' W 082°24'0 0.0 060 / 151020.9 -1.6-0.5
2018-Apr-15 00:00N 42°54' W 082°24'0 0.0 050 / 191018.6 -0.8 0.4
2018-Apr-14 18:00N 42°54' W 082°24'0 0.0 040 / 151017.1 1.2 2.4
2018-Apr-14 12:00N 42°54' W 082°24'0 0.0 030 / 221016.1 2.3 3.5
2018-Apr-14 06:00N 42°54' W 082°24'0 0.0 030 / 161015.6 3.4 4.6
2018-Apr-14 00:00N 42°54' W 082°24'0 0.0 020 / 111013.5 4.1 5.4
2018-Apr-13 18:00N 42°54' W 082°24'0 0.0 030 / 71010.6 6.1 7.4
2018-Apr-13 15:00N 42°54' W 082°24'0 0.0 030 / 91012.7 3.6 4.8
2018-Apr-13 12:00N 42°54' W 082°24'0 0.0 030 / 101013.1 1.8 3.0
2018-Apr-13 09:00N 42°54' W 082°24'0 0.0 030 / 131012.6 1.5 2.7
2018-Apr-13 06:00N 42°54' W 082°24'0 0.0 030 / 101011.9 1.2 2.4
2018-Apr-13 03:00N 42°54' W 082°24'0 0.0 020 / 151010.7 2.8 4.1
2018-Apr-13 00:00N 42°54' W 082°24'0 0.0 040 / 201006.8 6.4 7.7
2018-Apr-12 21:00N 42°54' W 082°24'0 0.0 260 / 201000.7 21.523.2
2018-Apr-12 18:00N 42°54' W 082°24'0 0.0 220 / 131000.9 15.617.1
2018-Apr-12 15:00N 42°54' W 082°24'0 0.0 180 / 181004.6 12.914.3
2018-Apr-12 12:00N 42°54' W 082°24'0 0.0 170 / 101009.0 5.9 7.2
2018-Apr-12 09:00N 42°54' W 082°24'0 0.0 110 / 91012.9 4.0 5.3
2018-Apr-12 06:00N 42°54' W 082°24'0 0.0 130 / 101015.4 4.8 6.0
2018-Apr-12 03:00N 42°54' W 082°24'0 0.0 080 / 51016.4 4.2 5.5
2018-Apr-12 00:00N 42°54' W 082°24'0 0.0 040 / 121015.1 6.2 7.5
2018-Apr-11 21:00N 42°54' W 082°24'0 0.0 210 / 51014.0 10.211.5
2018-Apr-11 18:00N 42°54' W 082°24'0 0.0 220 / 131014.9 6.4 7.8
2018-Apr-11 15:00N 42°54' W 082°24'0 0.0 200 / 131017.3 2.4 3.6
2018-Apr-11 12:00N 42°54' W 082°24'0 0.0 200 / 91017.8 3.2 4.5
2018-Apr-11 09:00N 42°54' W 082°24'0 0.0 200 / 71018.7 2.8 4.0
2018-Apr-11 06:00N 42°54' W 082°24'0 0.0 230 / 51020.8 2.0 3.2
2018-Apr-11 00:00N 42°54' W 082°24'13 2.6 190 / 91020.9 6.5 7.8
2018-Apr-10 19:00N 42°42' W 082°30'6 6.0 190 / 9 4.8 6.1 2.5
2018-Apr-10 18:00N 42°36' W 082°30'   210 / 91024.0 3.5 4.8 2.6

Dump ship's entire track history